sensor_id;sensor_type;location;lat;lon;timestamp;P1;durP1;ratioP1;P2;durP2;ratioP2
8791;SDS011;4432;50.890;4.744;2023-01-04T00:02:06;6.30;;;1.53;;
8791;SDS011;4432;50.890;4.744;2023-01-04T00:04:32;5.23;;;1.43;;
8791;SDS011;4432;50.890;4.744;2023-01-04T00:06:58;1.33;;;1.23;;
8791;SDS011;4432;50.890;4.744;2023-01-04T00:09:23;3.53;;;1.67;;
8791;SDS011;4432;50.890;4.744;2023-01-04T00:11:49;3.10;;;1.40;;
8791;SDS011;4432;50.890;4.744;2023-01-04T00:14:15;1.60;;;1.20;;
8791;SDS011;4432;50.890;4.744;2023-01-04T00:16:42;2.67;;;1.27;;
8791;SDS011;4432;50.890;4.744;2023-01-04T00:19:09;3.07;;;1.20;;
8791;SDS011;4432;50.890;4.744;2023-01-04T00:21:36;1.10;;;0.93;;
8791;SDS011;4432;50.890;4.744;2023-01-04T00:24:02;2.53;;;1.30;;
8791;SDS011;4432;50.890;4.744;2023-01-04T00:26:32;2.73;;;1.13;;
8791;SDS011;4432;50.890;4.744;2023-01-04T00:29:00;0.87;;;0.87;;
8791;SDS011;4432;50.890;4.744;2023-01-04T00:31:30;1.30;;;1.20;;
8791;SDS011;4432;50.890;4.744;2023-01-04T00:33:57;2.00;;;0.93;;
8791;SDS011;4432;50.890;4.744;2023-01-04T00:36:24;0.87;;;0.87;;
8791;SDS011;4432;50.890;4.744;2023-01-04T00:38:51;2.67;;;1.30;;
8791;SDS011;4432;50.890;4.744;2023-01-04T00:41:49;1.77;;;1.00;;
8791;SDS011;4432;50.890;4.744;2023-01-04T00:44:17;2.00;;;1.00;;
8791;SDS011;4432;50.890;4.744;2023-01-04T00:46:45;1.43;;;0.90;;
8791;SDS011;4432;50.890;4.744;2023-01-04T00:49:12;1.80;;;1.20;;
8791;SDS011;4432;50.890;4.744;2023-01-04T00:51:39;0.63;;;0.63;;
8791;SDS011;4432;50.890;4.744;2023-01-04T00:54:07;0.90;;;0.90;;
8791;SDS011;4432;50.890;4.744;2023-01-04T00:56:36;0.80;;;0.80;;
8791;SDS011;4432;50.890;4.744;2023-01-04T00:59:02;6.17;;;1.30;;
8791;SDS011;4432;50.890;4.744;2023-01-04T01:01:29;1.13;;;0.87;;
8791;SDS011;4432;50.890;4.744;2023-01-04T01:03:57;0.97;;;0.80;;
8791;SDS011;4432;50.890;4.744;2023-01-04T01:06:25;0.83;;;0.83;;
8791;SDS011;4432;50.890;4.744;2023-01-04T01:08:52;3.03;;;0.90;;
8791;SDS011;4432;50.890;4.744;2023-01-04T01:11:19;3.53;;;0.87;;
8791;SDS011;4432;50.890;4.744;2023-01-04T01:13:46;1.50;;;0.93;;
8791;SDS011;4432;50.890;4.744;2023-01-04T01:16:14;2.13;;;0.83;;
8791;SDS011;4432;50.890;4.744;2023-01-04T01:18:42;0.63;;;0.60;;
8791;SDS011;4432;50.890;4.744;2023-01-04T01:21:10;2.13;;;0.97;;
8791;SDS011;4432;50.890;4.744;2023-01-04T01:23:41;2.17;;;0.70;;
8791;SDS011;4432;50.890;4.744;2023-01-04T01:26:11;0.73;;;0.73;;
8791;SDS011;4432;50.890;4.744;2023-01-04T01:28:38;1.20;;;1.13;;
8791;SDS011;4432;50.890;4.744;2023-01-04T01:31:06;1.20;;;1.03;;
8791;SDS011;4432;50.890;4.744;2023-01-04T01:33:40;0.67;;;0.67;;
8791;SDS011;4432;50.890;4.744;2023-01-04T01:36:07;1.53;;;0.87;;
8791;SDS011;4432;50.890;4.744;2023-01-04T01:38:33;0.70;;;0.70;;
8791;SDS011;4432;50.890;4.744;2023-01-04T01:41:00;0.80;;;0.80;;
8791;SDS011;4432;50.890;4.744;2023-01-04T01:46:49;0.87;;;0.63;;
8791;SDS011;4432;50.890;4.744;2023-01-04T01:49:29;0.80;;;0.80;;
8791;SDS011;4432;50.890;4.744;2023-01-04T01:52:04;2.83;;;0.80;;
8791;SDS011;4432;50.890;4.744;2023-01-04T01:54:48;0.50;;;0.50;;
8791;SDS011;4432;50.890;4.744;2023-01-04T01:57:21;2.83;;;1.00;;
8791;SDS011;4432;50.890;4.744;2023-01-04T01:59:52;0.80;;;0.73;;
8791;SDS011;4432;50.890;4.744;2023-01-04T02:02:22;0.70;;;0.70;;
8791;SDS011;4432;50.890;4.744;2023-01-04T02:04:48;0.93;;;0.63;;
8791;SDS011;4432;50.890;4.744;2023-01-04T02:07:20;0.60;;;0.60;;
8791;SDS011;4432;50.890;4.744;2023-01-04T02:09:48;0.43;;;0.43;;
8791;SDS011;4432;50.890;4.744;2023-01-04T02:12:14;0.90;;;0.53;;
8791;SDS011;4432;50.890;4.744;2023-01-04T02:14:41;0.70;;;0.70;;
8791;SDS011;4432;50.890;4.744;2023-01-04T02:17:14;0.90;;;0.90;;
8791;SDS011;4432;50.890;4.744;2023-01-04T02:28:15;0.77;;;0.77;;
8791;SDS011;4432;50.890;4.744;2023-01-04T02:36:32;0.57;;;0.57;;
8791;SDS011;4432;50.890;4.744;2023-01-04T02:42:00;0.73;;;0.73;;
8791;SDS011;4432;50.890;4.744;2023-01-04T02:44:58;2.13;;;1.00;;
8791;SDS011;4432;50.890;4.744;2023-01-04T02:47:33;1.70;;;0.90;;
8791;SDS011;4432;50.890;4.744;2023-01-04T02:53:07;0.80;;;0.80;;
8791;SDS011;4432;50.890;4.744;2023-01-04T02:55:46;2.70;;;1.17;;
8791;SDS011;4432;50.890;4.744;2023-01-04T03:04:31;1.77;;;1.30;;
8791;SDS011;4432;50.890;4.744;2023-01-04T03:07:38;1.27;;;1.17;;
8791;SDS011;4432;50.890;4.744;2023-01-04T03:15:56;4.27;;;1.43;;
8791;SDS011;4432;50.890;4.744;2023-01-04T03:18:36;1.30;;;1.20;;
8791;SDS011;4432;50.890;4.744;2023-01-04T03:21:06;2.40;;;1.33;;
8791;SDS011;4432;50.890;4.744;2023-01-04T03:23:34;4.47;;;1.47;;
8791;SDS011;4432;50.890;4.744;2023-01-04T03:26:29;4.40;;;1.20;;
8791;SDS011;4432;50.890;4.744;2023-01-04T03:29:20;1.37;;;1.27;;
8791;SDS011;4432;50.890;4.744;2023-01-04T03:32:35;1.50;;;1.40;;
8791;SDS011;4432;50.890;4.744;2023-01-04T03:35:45;3.20;;;1.30;;
8791;SDS011;4432;50.890;4.744;2023-01-04T03:38:20;1.17;;;1.13;;
8791;SDS011;4432;50.890;4.744;2023-01-04T03:41:45;2.03;;;1.40;;
8791;SDS011;4432;50.890;4.744;2023-01-04T03:44:33;2.80;;;1.40;;
8791;SDS011;4432;50.890;4.744;2023-01-04T03:47:32;4.30;;;1.47;;
8791;SDS011;4432;50.890;4.744;2023-01-04T03:50:24;1.50;;;1.40;;
8791;SDS011;4432;50.890;4.744;2023-01-04T03:52:55;2.17;;;1.60;;
8791;SDS011;4432;50.890;4.744;2023-01-04T03:55:28;2.60;;;1.40;;
8791;SDS011;4432;50.890;4.744;2023-01-04T03:57:55;1.40;;;1.30;;
8791;SDS011;4432;50.890;4.744;2023-01-04T04:00:22;1.73;;;1.30;;
8791;SDS011;4432;50.890;4.744;2023-01-04T04:02:48;1.30;;;1.30;;
8791;SDS011;4432;50.890;4.744;2023-01-04T04:05:19;1.73;;;1.27;;
8791;SDS011;4432;50.890;4.744;2023-01-04T04:08:07;2.23;;;1.30;;
8791;SDS011;4432;50.890;4.744;2023-01-04T04:10:51;2.80;;;1.20;;
8791;SDS011;4432;50.890;4.744;2023-01-04T04:13:18;1.30;;;1.20;;
8791;SDS011;4432;50.890;4.744;2023-01-04T04:15:44;2.10;;;1.90;;
8791;SDS011;4432;50.890;4.744;2023-01-04T04:18:09;1.17;;;1.13;;
8791;SDS011;4432;50.890;4.744;2023-01-04T04:20:35;1.47;;;1.23;;
8791;SDS011;4432;50.890;4.744;2023-01-04T04:23:01;1.80;;;1.40;;
8791;SDS011;4432;50.890;4.744;2023-01-04T04:25:27;3.20;;;2.00;;
8791;SDS011;4432;50.890;4.744;2023-01-04T04:27:53;1.30;;;1.20;;
8791;SDS011;4432;50.890;4.744;2023-01-04T04:30:19;3.10;;;1.40;;
8791;SDS011;4432;50.890;4.744;2023-01-04T04:32:45;1.53;;;1.40;;
8791;SDS011;4432;50.890;4.744;2023-01-04T04:35:11;2.53;;;1.20;;
8791;SDS011;4432;50.890;4.744;2023-01-04T04:37:36;1.00;;;1.00;;
8791;SDS011;4432;50.890;4.744;2023-01-04T04:40:03;2.00;;;1.67;;
8791;SDS011;4432;50.890;4.744;2023-01-04T04:42:30;6.40;;;1.50;;
8791;SDS011;4432;50.890;4.744;2023-01-04T04:44:55;2.77;;;1.43;;
8791;SDS011;4432;50.890;4.744;2023-01-04T04:47:21;1.47;;;1.30;;
8791;SDS011;4432;50.890;4.744;2023-01-04T04:49:47;3.03;;;1.30;;
8791;SDS011;4432;50.890;4.744;2023-01-04T04:52:12;2.40;;;1.50;;
8791;SDS011;4432;50.890;4.744;2023-01-04T04:54:39;1.90;;;1.20;;
8791;SDS011;4432;50.890;4.744;2023-01-04T04:57:04;2.07;;;1.40;;
8791;SDS011;4432;50.890;4.744;2023-01-04T04:59:30;1.40;;;1.30;;
8791;SDS011;4432;50.890;4.744;2023-01-04T05:01:56;2.63;;;1.10;;
8791;SDS011;4432;50.890;4.744;2023-01-04T05:04:22;5.33;;;1.20;;
8791;SDS011;4432;50.890;4.744;2023-01-04T05:06:48;4.23;;;1.10;;
8791;SDS011;4432;50.890;4.744;2023-01-04T05:09:14;1.70;;;1.30;;
8791;SDS011;4432;50.890;4.744;2023-01-04T05:11:41;1.27;;;1.17;;
8791;SDS011;4432;50.890;4.744;2023-01-04T05:14:25;1.53;;;1.27;;
8791;SDS011;4432;50.890;4.744;2023-01-04T05:16:51;9.63;;;1.33;;
8791;SDS011;4432;50.890;4.744;2023-01-04T05:19:17;1.80;;;1.30;;
8791;SDS011;4432;50.890;4.744;2023-01-04T05:21:43;1.97;;;1.23;;
8791;SDS011;4432;50.890;4.744;2023-01-04T05:24:12;1.13;;;0.93;;
8791;SDS011;4432;50.890;4.744;2023-01-04T05:26:38;2.40;;;1.10;;
8791;SDS011;4432;50.890;4.744;2023-01-04T05:29:04;4.73;;;1.50;;
8791;SDS011;4432;50.890;4.744;2023-01-04T05:31:30;3.77;;;1.20;;
8791;SDS011;4432;50.890;4.744;2023-01-04T05:33:56;1.43;;;1.10;;
8791;SDS011;4432;50.890;4.744;2023-01-04T05:36:21;1.33;;;1.23;;
8791;SDS011;4432;50.890;4.744;2023-01-04T05:38:47;1.10;;;1.00;;
8791;SDS011;4432;50.890;4.744;2023-01-04T05:41:13;4.03;;;1.40;;
8791;SDS011;4432;50.890;4.744;2023-01-04T05:43:58;1.03;;;0.90;;
8791;SDS011;4432;50.890;4.744;2023-01-04T05:46:23;1.10;;;1.00;;
8791;SDS011;4432;50.890;4.744;2023-01-04T05:48:49;2.57;;;0.80;;
8791;SDS011;4432;50.890;4.744;2023-01-04T05:51:15;0.60;;;0.60;;
8791;SDS011;4432;50.890;4.744;2023-01-04T05:53:41;2.50;;;1.20;;
8791;SDS011;4432;50.890;4.744;2023-01-04T05:56:06;1.50;;;1.00;;
8791;SDS011;4432;50.890;4.744;2023-01-04T05:58:32;0.90;;;0.90;;
8791;SDS011;4432;50.890;4.744;2023-01-04T06:00:58;0.90;;;0.90;;
8791;SDS011;4432;50.890;4.744;2023-01-04T06:03:24;1.00;;;1.00;;
8791;SDS011;4432;50.890;4.744;2023-01-04T06:05:50;1.17;;;1.10;;
8791;SDS011;4432;50.890;4.744;2023-01-04T06:08:16;1.20;;;1.10;;
8791;SDS011;4432;50.890;4.744;2023-01-04T06:10:42;1.30;;;1.30;;
8791;SDS011;4432;50.890;4.744;2023-01-04T06:13:08;1.10;;;1.00;;
8791;SDS011;4432;50.890;4.744;2023-01-04T06:15:34;1.43;;;0.90;;
8791;SDS011;4432;50.890;4.744;2023-01-04T06:17:59;1.27;;;0.97;;
8791;SDS011;4432;50.890;4.744;2023-01-04T06:20:26;1.50;;;0.87;;
8791;SDS011;4432;50.890;4.744;2023-01-04T06:22:51;1.73;;;0.97;;
8791;SDS011;4432;50.890;4.744;2023-01-04T06:25:17;1.20;;;1.10;;
8791;SDS011;4432;50.890;4.744;2023-01-04T06:27:43;1.57;;;1.23;;
8791;SDS011;4432;50.890;4.744;2023-01-04T06:30:09;3.43;;;1.10;;
8791;SDS011;4432;50.890;4.744;2023-01-04T06:32:35;1.30;;;1.03;;
8791;SDS011;4432;50.890;4.744;2023-01-04T06:35:01;2.10;;;1.00;;
8791;SDS011;4432;50.890;4.744;2023-01-04T06:37:26;0.90;;;0.90;;
8791;SDS011;4432;50.890;4.744;2023-01-04T06:39:52;0.93;;;0.93;;
8791;SDS011;4432;50.890;4.744;2023-01-04T06:42:18;1.07;;;1.00;;
8791;SDS011;4432;50.890;4.744;2023-01-04T06:45:03;1.53;;;1.17;;
8791;SDS011;4432;50.890;4.744;2023-01-04T06:47:29;1.67;;;1.30;;
8791;SDS011;4432;50.890;4.744;2023-01-04T06:49:55;1.20;;;1.00;;
8791;SDS011;4432;50.890;4.744;2023-01-04T06:52:20;0.83;;;0.83;;
8791;SDS011;4432;50.890;4.744;2023-01-04T06:54:46;3.03;;;1.10;;
8791;SDS011;4432;50.890;4.744;2023-01-04T06:57:12;1.17;;;1.13;;
8791;SDS011;4432;50.890;4.744;2023-01-04T06:59:38;1.33;;;0.97;;
8791;SDS011;4432;50.890;4.744;2023-01-04T07:02:04;1.60;;;1.00;;
8791;SDS011;4432;50.890;4.744;2023-01-04T07:04:30;4.27;;;1.00;;
8791;SDS011;4432;50.890;4.744;2023-01-04T07:06:56;0.90;;;0.90;;
8791;SDS011;4432;50.890;4.744;2023-01-04T07:09:22;1.40;;;1.30;;
8791;SDS011;4432;50.890;4.744;2023-01-04T07:11:48;1.10;;;1.00;;
8791;SDS011;4432;50.890;4.744;2023-01-04T07:14:14;3.77;;;1.00;;
8791;SDS011;4432;50.890;4.744;2023-01-04T07:16:40;2.30;;;1.00;;
8791;SDS011;4432;50.890;4.744;2023-01-04T07:19:06;0.87;;;0.87;;
8791;SDS011;4432;50.890;4.744;2023-01-04T07:21:33;0.90;;;0.90;;
8791;SDS011;4432;50.890;4.744;2023-01-04T07:23:59;1.90;;;1.20;;
8791;SDS011;4432;50.890;4.744;2023-01-04T07:26:24;1.30;;;1.20;;
8791;SDS011;4432;50.890;4.744;2023-01-04T07:28:50;0.73;;;0.73;;
8791;SDS011;4432;50.890;4.744;2023-01-04T07:31:34;1.10;;;0.90;;
8791;SDS011;4432;50.890;4.744;2023-01-04T07:34:00;1.20;;;1.10;;
8791;SDS011;4432;50.890;4.744;2023-01-04T07:36:26;0.90;;;0.90;;
8791;SDS011;4432;50.890;4.744;2023-01-04T07:38:52;2.87;;;0.87;;
8791;SDS011;4432;50.890;4.744;2023-01-04T07:41:17;0.90;;;0.90;;
8791;SDS011;4432;50.890;4.744;2023-01-04T07:43:44;0.77;;;0.70;;
8791;SDS011;4432;50.890;4.744;2023-01-04T07:46:10;1.33;;;1.10;;
8791;SDS011;4432;50.890;4.744;2023-01-04T07:48:36;0.87;;;0.80;;
8791;SDS011;4432;50.890;4.744;2023-01-04T07:51:02;1.00;;;0.90;;
8791;SDS011;4432;50.890;4.744;2023-01-04T07:53:28;2.20;;;1.37;;
8791;SDS011;4432;50.890;4.744;2023-01-04T07:55:56;0.80;;;0.80;;
8791;SDS011;4432;50.890;4.744;2023-01-04T07:58:23;0.80;;;0.80;;
8791;SDS011;4432;50.890;4.744;2023-01-04T08:00:49;1.03;;;0.97;;
8791;SDS011;4432;50.890;4.744;2023-01-04T08:03:15;0.70;;;0.70;;
8791;SDS011;4432;50.890;4.744;2023-01-04T08:05:41;1.63;;;1.00;;
8791;SDS011;4432;50.890;4.744;2023-01-04T08:08:07;1.90;;;0.83;;
8791;SDS011;4432;50.890;4.744;2023-01-04T08:10:33;5.50;;;0.90;;
8791;SDS011;4432;50.890;4.744;2023-01-04T08:13:00;0.83;;;0.83;;
8791;SDS011;4432;50.890;4.744;2023-01-04T08:15:26;0.90;;;0.90;;
8791;SDS011;4432;50.890;4.744;2023-01-04T08:17:51;0.80;;;0.80;;
8791;SDS011;4432;50.890;4.744;2023-01-04T08:20:17;0.80;;;0.80;;
8791;SDS011;4432;50.890;4.744;2023-01-04T08:22:43;1.23;;;0.80;;
8791;SDS011;4432;50.890;4.744;2023-01-04T08:25:09;0.80;;;0.80;;
8791;SDS011;4432;50.890;4.744;2023-01-04T08:27:35;2.47;;;0.90;;
8791;SDS011;4432;50.890;4.744;2023-01-04T08:30:01;0.93;;;0.83;;
8791;SDS011;4432;50.890;4.744;2023-01-04T08:32:27;0.93;;;0.90;;
8791;SDS011;4432;50.890;4.744;2023-01-04T08:34:53;2.70;;;0.90;;
8791;SDS011;4432;50.890;4.744;2023-01-04T08:37:19;1.03;;;0.93;;
8791;SDS011;4432;50.890;4.744;2023-01-04T08:39:45;2.03;;;0.83;;
8791;SDS011;4432;50.890;4.744;2023-01-04T08:42:10;1.20;;;1.10;;
8791;SDS011;4432;50.890;4.744;2023-01-04T08:44:36;1.70;;;1.00;;
8791;SDS011;4432;50.890;4.744;2023-01-04T08:47:02;1.03;;;1.03;;
8791;SDS011;4432;50.890;4.744;2023-01-04T08:49:29;2.70;;;0.93;;
8791;SDS011;4432;50.890;4.744;2023-01-04T08:51:55;0.90;;;0.90;;
8791;SDS011;4432;50.890;4.744;2023-01-04T08:54:20;1.20;;;1.10;;
8791;SDS011;4432;50.890;4.744;2023-01-04T08:56:47;0.97;;;0.87;;
8791;SDS011;4432;50.890;4.744;2023-01-04T08:59:13;1.60;;;0.97;;
8791;SDS011;4432;50.890;4.744;2023-01-04T09:01:38;1.47;;;0.77;;
8791;SDS011;4432;50.890;4.744;2023-01-04T09:04:05;2.03;;;1.00;;
8791;SDS011;4432;50.890;4.744;2023-01-04T09:06:31;2.30;;;1.03;;
8791;SDS011;4432;50.890;4.744;2023-01-04T09:08:57;2.20;;;1.30;;
8791;SDS011;4432;50.890;4.744;2023-01-04T09:11:23;0.80;;;0.80;;
8791;SDS011;4432;50.890;4.744;2023-01-04T09:13:54;1.17;;;1.00;;
8791;SDS011;4432;50.890;4.744;2023-01-04T09:16:21;1.10;;;1.00;;
8791;SDS011;4432;50.890;4.744;2023-01-04T09:18:47;0.90;;;0.90;;
8791;SDS011;4432;50.890;4.744;2023-01-04T09:21:14;3.37;;;0.87;;
8791;SDS011;4432;50.890;4.744;2023-01-04T09:23:41;5.17;;;1.13;;
8791;SDS011;4432;50.890;4.744;2023-01-04T09:28:39;6.93;;;0.93;;
8791;SDS011;4432;50.890;4.744;2023-01-04T09:33:38;2.30;;;1.00;;
8791;SDS011;4432;50.890;4.744;2023-01-04T09:36:05;4.87;;;0.90;;
8791;SDS011;4432;50.890;4.744;2023-01-04T09:38:32;1.50;;;0.90;;
8791;SDS011;4432;50.890;4.744;2023-01-04T09:43:33;1.23;;;0.70;;
8791;SDS011;4432;50.890;4.744;2023-01-04T09:46:08;2.10;;;1.00;;
8791;SDS011;4432;50.890;4.744;2023-01-04T09:48:36;1.13;;;0.90;;
8791;SDS011;4432;50.890;4.744;2023-01-04T09:51:10;4.43;;;0.90;;
8791;SDS011;4432;50.890;4.744;2023-01-04T09:56:17;4.43;;;0.77;;
8791;SDS011;4432;50.890;4.744;2023-01-04T09:58:47;1.30;;;0.80;;
8791;SDS011;4432;50.890;4.744;2023-01-04T10:01:19;0.93;;;0.83;;
8791;SDS011;4432;50.890;4.744;2023-01-04T10:04:12;1.33;;;0.70;;
8791;SDS011;4432;50.890;4.744;2023-01-04T10:06:51;1.33;;;0.90;;
8791;SDS011;4432;50.890;4.744;2023-01-04T10:09:18;2.10;;;1.00;;
8791;SDS011;4432;50.890;4.744;2023-01-04T10:17:29;2.33;;;0.60;;
8791;SDS011;4432;50.890;4.744;2023-01-04T10:34:20;0.80;;;0.80;;
8791;SDS011;4432;50.890;4.744;2023-01-04T10:37:00;2.97;;;0.90;;
8791;SDS011;4432;50.890;4.744;2023-01-04T10:39:35;4.50;;;1.10;;
8791;SDS011;4432;50.890;4.744;2023-01-04T10:45:12;0.70;;;0.70;;
8791;SDS011;4432;50.890;4.744;2023-01-04T10:53:16;3.90;;;1.10;;
8791;SDS011;4432;50.890;4.744;2023-01-04T10:55:49;0.60;;;0.60;;
8791;SDS011;4432;50.890;4.744;2023-01-04T10:58:29;0.87;;;0.87;;
8791;SDS011;4432;50.890;4.744;2023-01-04T11:01:03;1.00;;;1.00;;
8791;SDS011;4432;50.890;4.744;2023-01-04T11:03:57;1.93;;;0.87;;
8791;SDS011;4432;50.890;4.744;2023-01-04T11:09:16;1.60;;;0.87;;
8791;SDS011;4432;50.890;4.744;2023-01-04T11:11:52;0.83;;;0.80;;
8791;SDS011;4432;50.890;4.744;2023-01-04T11:14:20;0.60;;;0.60;;
8791;SDS011;4432;50.890;4.744;2023-01-04T11:16:48;2.03;;;0.57;;
8791;SDS011;4432;50.890;4.744;2023-01-04T11:19:16;1.70;;;1.10;;
8791;SDS011;4432;50.890;4.744;2023-01-04T11:21:44;1.10;;;0.73;;
8791;SDS011;4432;50.890;4.744;2023-01-04T11:24:21;1.50;;;0.70;;
8791;SDS011;4432;50.890;4.744;2023-01-04T11:26:48;1.33;;;0.90;;
8791;SDS011;4432;50.890;4.744;2023-01-04T11:35:10;2.77;;;0.90;;
8791;SDS011;4432;50.890;4.744;2023-01-04T11:37:36;1.17;;;0.50;;
8791;SDS011;4432;50.890;4.744;2023-01-04T11:40:11;2.33;;;0.70;;
8791;SDS011;4432;50.890;4.744;2023-01-04T11:42:44;0.63;;;0.60;;
8791;SDS011;4432;50.890;4.744;2023-01-04T11:45:19;0.70;;;0.70;;
8791;SDS011;4432;50.890;4.744;2023-01-04T11:47:51;1.17;;;1.00;;
8791;SDS011;4432;50.890;4.744;2023-01-04T11:53:27;0.70;;;0.70;;
8791;SDS011;4432;50.890;4.744;2023-01-04T11:56:08;0.87;;;0.70;;
8791;SDS011;4432;50.890;4.744;2023-01-04T11:58:35;0.67;;;0.67;;
8791;SDS011;4432;50.890;4.744;2023-01-04T12:01:00;0.83;;;0.83;;
8791;SDS011;4432;50.890;4.744;2023-01-04T12:03:28;1.83;;;0.77;;
8791;SDS011;4432;50.890;4.744;2023-01-04T12:05:54;3.97;;;0.70;;
8791;SDS011;4432;50.890;4.744;2023-01-04T12:10:57;1.17;;;0.80;;
8791;SDS011;4432;50.890;4.744;2023-01-04T12:13:24;1.00;;;0.87;;
8791;SDS011;4432;50.890;4.744;2023-01-04T12:15:54;0.80;;;0.80;;
8791;SDS011;4432;50.890;4.744;2023-01-04T12:18:38;2.07;;;0.70;;
8791;SDS011;4432;50.890;4.744;2023-01-04T12:21:15;0.70;;;0.70;;
8791;SDS011;4432;50.890;4.744;2023-01-04T12:23:50;1.27;;;0.60;;
8791;SDS011;4432;50.890;4.744;2023-01-04T12:26:18;4.13;;;1.00;;
8791;SDS011;4432;50.890;4.744;2023-01-04T12:28:46;3.83;;;0.80;;
8791;SDS011;4432;50.890;4.744;2023-01-04T12:33:50;0.97;;;0.93;;
8791;SDS011;4432;50.890;4.744;2023-01-04T12:36:18;0.93;;;0.70;;
8791;SDS011;4432;50.890;4.744;2023-01-04T12:38:55;1.63;;;0.80;;
8791;SDS011;4432;50.890;4.744;2023-01-04T12:41:22;0.70;;;0.70;;
8791;SDS011;4432;50.890;4.744;2023-01-04T12:50:05;1.10;;;0.70;;
8791;SDS011;4432;50.890;4.744;2023-01-04T12:52:34;3.03;;;1.00;;
8791;SDS011;4432;50.890;4.744;2023-01-04T12:55:10;0.50;;;0.50;;
8791;SDS011;4432;50.890;4.744;2023-01-04T12:58:00;3.10;;;0.80;;
8791;SDS011;4432;50.890;4.744;2023-01-04T13:08:19;1.70;;;0.90;;
8791;SDS011;4432;50.890;4.744;2023-01-04T13:10:46;0.70;;;0.70;;
8791;SDS011;4432;50.890;4.744;2023-01-04T13:21:07;0.77;;;0.73;;
8791;SDS011;4432;50.890;4.744;2023-01-04T13:23:40;0.87;;;0.70;;
8791;SDS011;4432;50.890;4.744;2023-01-04T13:29:28;0.70;;;0.70;;
8791;SDS011;4432;50.890;4.744;2023-01-04T13:34:36;0.57;;;0.57;;
8791;SDS011;4432;50.890;4.744;2023-01-04T13:37:05;0.53;;;0.53;;
8791;SDS011;4432;50.890;4.744;2023-01-04T13:39:38;1.13;;;0.40;;
8791;SDS011;4432;50.890;4.744;2023-01-04T13:47:34;0.60;;;0.60;;
8791;SDS011;4432;50.890;4.744;2023-01-04T13:50:01;0.73;;;0.60;;
8791;SDS011;4432;50.890;4.744;2023-01-04T13:52:28;0.60;;;0.60;;
8791;SDS011;4432;50.890;4.744;2023-01-04T13:58:33;2.10;;;0.80;;
8791;SDS011;4432;50.890;4.744;2023-01-04T14:05:35;0.73;;;0.70;;
8791;SDS011;4432;50.890;4.744;2023-01-04T14:08:02;1.00;;;0.60;;
8791;SDS011;4432;50.890;4.744;2023-01-04T14:10:35;1.13;;;0.60;;
8791;SDS011;4432;50.890;4.744;2023-01-04T14:13:02;0.50;;;0.50;;
8791;SDS011;4432;50.890;4.744;2023-01-04T14:15:28;1.43;;;1.00;;
8791;SDS011;4432;50.890;4.744;2023-01-04T14:17:57;4.03;;;0.70;;
8791;SDS011;4432;50.890;4.744;2023-01-04T14:20:35;1.80;;;0.70;;
8791;SDS011;4432;50.890;4.744;2023-01-04T14:23:01;1.23;;;0.80;;
8791;SDS011;4432;50.890;4.744;2023-01-04T14:25:34;1.13;;;0.70;;
8791;SDS011;4432;50.890;4.744;2023-01-04T14:30:47;0.60;;;0.60;;
8791;SDS011;4432;50.890;4.744;2023-01-04T14:33:24;0.60;;;0.60;;
8791;SDS011;4432;50.890;4.744;2023-01-04T14:36:10;1.07;;;0.50;;
8791;SDS011;4432;50.890;4.744;2023-01-04T14:41:21;0.30;;;0.30;;
8791;SDS011;4432;50.890;4.744;2023-01-04T14:43:51;0.60;;;0.60;;
8791;SDS011;4432;50.890;4.744;2023-01-04T14:46:37;0.97;;;0.80;;
8791;SDS011;4432;50.890;4.744;2023-01-04T14:49:05;1.60;;;0.70;;
8791;SDS011;4432;50.890;4.744;2023-01-04T14:51:41;0.60;;;0.60;;
8791;SDS011;4432;50.890;4.744;2023-01-04T14:54:19;1.87;;;0.70;;
8791;SDS011;4432;50.890;4.744;2023-01-04T14:56:45;0.90;;;0.80;;
8791;SDS011;4432;50.890;4.744;2023-01-04T14:59:11;0.70;;;0.70;;
8791;SDS011;4432;50.890;4.744;2023-01-04T15:01:37;0.50;;;0.50;;
8791;SDS011;4432;50.890;4.744;2023-01-04T15:04:03;0.63;;;0.63;;
8791;SDS011;4432;50.890;4.744;2023-01-04T15:06:29;0.80;;;0.80;;
8791;SDS011;4432;50.890;4.744;2023-01-04T15:08:56;0.57;;;0.57;;
8791;SDS011;4432;50.890;4.744;2023-01-04T15:11:22;1.53;;;0.90;;
8791;SDS011;4432;50.890;4.744;2023-01-04T15:13:48;0.70;;;0.70;;
8791;SDS011;4432;50.890;4.744;2023-01-04T15:16:14;1.70;;;0.67;;
8791;SDS011;4432;50.890;4.744;2023-01-04T15:18:42;1.53;;;1.10;;
8791;SDS011;4432;50.890;4.744;2023-01-04T15:21:09;4.43;;;0.90;;
8791;SDS011;4432;50.890;4.744;2023-01-04T15:23:35;1.83;;;1.20;;
8791;SDS011;4432;50.890;4.744;2023-01-04T15:26:04;3.43;;;1.30;;
8791;SDS011;4432;50.890;4.744;2023-01-04T15:28:31;1.50;;;1.40;;
8791;SDS011;4432;50.890;4.744;2023-01-04T15:30:57;1.17;;;0.80;;
8791;SDS011;4432;50.890;4.744;2023-01-04T15:33:24;2.07;;;1.20;;
8791;SDS011;4432;50.890;4.744;2023-01-04T15:36:01;1.20;;;1.20;;
8791;SDS011;4432;50.890;4.744;2023-01-04T15:38:31;3.80;;;1.40;;
8791;SDS011;4432;50.890;4.744;2023-01-04T15:40:59;3.77;;;1.23;;
8791;SDS011;4432;50.890;4.744;2023-01-04T15:43:26;7.70;;;1.43;;
8791;SDS011;4432;50.890;4.744;2023-01-04T15:45:52;5.27;;;1.33;;
8791;SDS011;4432;50.890;4.744;2023-01-04T15:48:18;8.60;;;2.33;;
8791;SDS011;4432;50.890;4.744;2023-01-04T15:50:43;2.40;;;1.43;;
8791;SDS011;4432;50.890;4.744;2023-01-04T15:53:09;10.93;;;2.30;;
8791;SDS011;4432;50.890;4.744;2023-01-04T15:55:35;7.70;;;1.47;;
8791;SDS011;4432;50.890;4.744;2023-01-04T15:58:02;6.07;;;1.53;;
8791;SDS011;4432;50.890;4.744;2023-01-04T16:00:28;4.47;;;1.80;;
8791;SDS011;4432;50.890;4.744;2023-01-04T16:02:54;12.13;;;2.00;;
8791;SDS011;4432;50.890;4.744;2023-01-04T16:05:20;8.53;;;2.37;;
8791;SDS011;4432;50.890;4.744;2023-01-04T16:07:46;6.90;;;2.00;;
8791;SDS011;4432;50.890;4.744;2023-01-04T16:10:13;12.17;;;1.60;;
8791;SDS011;4432;50.890;4.744;2023-01-04T16:12:39;4.90;;;1.90;;
8791;SDS011;4432;50.890;4.744;2023-01-04T16:15:06;5.43;;;2.23;;
8791;SDS011;4432;50.890;4.744;2023-01-04T16:17:32;13.87;;;2.17;;
8791;SDS011;4432;50.890;4.744;2023-01-04T16:19:58;15.20;;;2.30;;
8791;SDS011;4432;50.890;4.744;2023-01-04T16:22:24;8.40;;;2.00;;
8791;SDS011;4432;50.890;4.744;2023-01-04T16:24:50;12.53;;;2.50;;
8791;SDS011;4432;50.890;4.744;2023-01-04T16:27:16;12.93;;;2.40;;
8791;SDS011;4432;50.890;4.744;2023-01-04T16:29:42;8.67;;;1.87;;
8791;SDS011;4432;50.890;4.744;2023-01-04T16:32:08;8.33;;;2.10;;
8791;SDS011;4432;50.890;4.744;2023-01-04T16:34:34;9.30;;;2.27;;
8791;SDS011;4432;50.890;4.744;2023-01-04T16:37:00;10.33;;;2.30;;
8791;SDS011;4432;50.890;4.744;2023-01-04T16:39:26;8.17;;;1.77;;
8791;SDS011;4432;50.890;4.744;2023-01-04T16:41:52;6.47;;;2.40;;
8791;SDS011;4432;50.890;4.744;2023-01-04T16:44:18;13.43;;;2.40;;
8791;SDS011;4432;50.890;4.744;2023-01-04T16:46:45;8.83;;;2.20;;
8791;SDS011;4432;50.890;4.744;2023-01-04T16:49:12;13.33;;;2.67;;
8791;SDS011;4432;50.890;4.744;2023-01-04T16:51:40;5.63;;;1.80;;
8791;SDS011;4432;50.890;4.744;2023-01-04T16:54:08;8.40;;;2.37;;
8791;SDS011;4432;50.890;4.744;2023-01-04T16:56:36;10.47;;;2.37;;
8791;SDS011;4432;50.890;4.744;2023-01-04T16:59:03;13.20;;;2.87;;
8791;SDS011;4432;50.890;4.744;2023-01-04T17:01:30;10.23;;;2.13;;
8791;SDS011;4432;50.890;4.744;2023-01-04T17:04:02;20.00;;;3.43;;
8791;SDS011;4432;50.890;4.744;2023-01-04T17:06:31;11.27;;;2.17;;
8791;SDS011;4432;50.890;4.744;2023-01-04T17:08:59;14.03;;;2.70;;
8791;SDS011;4432;50.890;4.744;2023-01-04T17:11:31;17.93;;;2.77;;
8791;SDS011;4432;50.890;4.744;2023-01-04T17:13:59;9.47;;;2.60;;
8791;SDS011;4432;50.890;4.744;2023-01-04T17:16:25;20.20;;;3.30;;
8791;SDS011;4432;50.890;4.744;2023-01-04T17:18:52;14.93;;;2.40;;
8791;SDS011;4432;50.890;4.744;2023-01-04T17:21:20;13.63;;;2.77;;
8791;SDS011;4432;50.890;4.744;2023-01-04T17:23:50;12.23;;;2.60;;
8791;SDS011;4432;50.890;4.744;2023-01-04T17:26:24;15.17;;;2.77;;
8791;SDS011;4432;50.890;4.744;2023-01-04T17:28:52;13.57;;;2.87;;
8791;SDS011;4432;50.890;4.744;2023-01-04T17:31:23;8.20;;;2.30;;
8791;SDS011;4432;50.890;4.744;2023-01-04T17:33:51;10.87;;;2.77;;
8791;SDS011;4432;50.890;4.744;2023-01-04T17:36:18;20.47;;;3.50;;
8791;SDS011;4432;50.890;4.744;2023-01-04T17:38:45;13.57;;;2.73;;
8791;SDS011;4432;50.890;4.744;2023-01-04T17:41:16;9.93;;;2.47;;
8791;SDS011;4432;50.890;4.744;2023-01-04T17:43:44;14.30;;;2.10;;
8791;SDS011;4432;50.890;4.744;2023-01-04T17:46:11;17.37;;;3.50;;
8791;SDS011;4432;50.890;4.744;2023-01-04T17:48:41;12.10;;;2.27;;